Time;durP1;ratioP1;P1;durP2;ratioP2;P2;SDS_P1;SDS_P2;PMS_P1;PMS_P2;Temp;Humidity;BMP_temperature;BMP_pressure;BME280_temperature;BME280_humidity;BME280_pressure;Samples;Min_cycle;Max_cycle;Signal;HPM_P1;HPM_P2
2021/10/09 00:02:02;;;;;;;32.70;27.97;;;10.80;99.90;;;;;;4926916;29;20220;-84
2021/10/09 00:04:29;;;;;;;37.70;31.00;;;10.70;99.90;;;;;;4929459;29;20217;-85
2021/10/09 00:06:55;;;;;;;37.90;31.20;;;10.70;99.90;;;;;;4930292;29;20198;-85
2021/10/09 00:09:24;;;;;;;38.87;32.10;;;10.70;99.90;;;;;;4934347;29;20202;-85
2021/10/09 00:11:50;;;;;;;40.27;33.00;;;10.80;99.90;;;;;;4918835;29;20217;-85
2021/10/09 00:14:17;;;;;;;39.07;31.60;;;10.80;99.90;;;;;;4916431;29;20234;-84
2021/10/09 00:16:44;;;;;;;40.67;32.57;;;10.80;99.90;;;;;;4919904;29;20217;-86
2021/10/09 00:19:12;;;;;;;43.90;35.43;;;10.80;99.90;;;;;;4936289;29;20218;-86
2021/10/09 00:21:43;;;;;;;41.83;34.40;;;10.80;99.90;;;;;;4936546;29;20210;-83
2021/10/09 00:24:11;;;;;;;41.00;33.50;;;10.80;99.90;;;;;;4936255;29;20214;-84
2021/10/09 00:26:39;;;;;;;46.27;35.77;;;10.80;99.90;;;;;;4936032;29;20204;-86
2021/10/09 00:29:06;;;;;;;48.17;38.27;;;10.80;99.90;;;;;;4935958;29;21035;-84
2021/10/09 00:31:33;;;;;;;42.27;35.63;;;10.90;99.90;;;;;;4936128;29;20205;-86
2021/10/09 00:33:59;;;;;;;41.87;34.43;;;11.00;99.90;;;;;;4936164;29;20712;-85
2021/10/09 00:36:26;;;;;;;43.77;34.83;;;11.00;99.90;;;;;;4934963;29;20222;-84
2021/10/09 00:38:54;;;;;;;40.57;34.37;;;11.00;99.90;;;;;;4935559;29;20210;-85
2021/10/09 00:41:21;;;;;;;42.20;35.23;;;11.10;99.90;;;;;;4935913;29;20234;-86
2021/10/09 00:43:49;;;;;;;42.03;35.33;;;11.10;99.90;;;;;;4935927;29;20206;-84
2021/10/09 00:46:16;;;;;;;39.43;33.97;;;11.00;99.90;;;;;;4935728;29;20209;-86
2021/10/09 00:48:43;;;;;;;44.17;35.97;;;11.10;99.90;;;;;;4936272;29;20194;-85
2021/10/09 00:51:10;;;;;;;39.60;34.73;;;11.10;99.90;;;;;;4935975;29;20215;-84
2021/10/09 00:53:39;;;;;;;42.53;33.30;;;11.10;99.90;;;;;;4935876;29;20230;-86
2021/10/09 00:56:07;;;;;;;41.27;33.93;;;11.10;99.90;;;;;;4934633;29;20242;-84
2021/10/09 00:58:37;;;;;;;40.47;33.77;;;11.10;99.90;;;;;;4917126;29;20213;-87
2021/10/09 01:01:06;;;;;;;39.07;32.53;;;11.10;99.90;;;;;;4916759;29;20207;-82
2021/10/09 01:03:33;;;;;;;41.57;34.50;;;11.00;99.90;;;;;;4931001;29;20210;-86
2021/10/09 01:06:00;;;;;;;42.00;34.50;;;11.10;99.90;;;;;;4935669;29;20198;-85
2021/10/09 01:08:27;;;;;;;41.10;35.33;;;11.00;99.90;;;;;;4935824;29;20254;-87
2021/10/09 01:10:54;;;;;;;41.23;33.20;;;11.00;99.90;;;;;;4935251;29;20213;-86
2021/10/09 01:13:21;;;;;;;38.40;31.67;;;11.00;99.90;;;;;;4936134;29;20465;-86
2021/10/09 01:15:48;;;;;;;41.20;35.57;;;11.00;99.90;;;;;;4935905;29;20217;-87
2021/10/09 01:18:17;;;;;;;41.47;35.30;;;10.90;99.90;;;;;;4934781;29;20210;-88
2021/10/09 01:20:51;;;;;;;38.80;31.57;;;10.90;99.90;;;;;;4934142;29;20265;-85
2021/10/09 01:23:19;;;;;;;36.97;31.10;;;10.90;99.90;;;;;;4931691;29;20611;-86
2021/10/09 01:25:46;;;;;;;41.37;32.83;;;10.90;99.90;;;;;;4916895;29;20210;-86
2021/10/09 01:28:13;;;;;;;42.93;33.17;;;10.80;99.90;;;;;;4916416;29;20226;-87
2021/10/09 01:30:40;;;;;;;40.20;31.37;;;10.80;99.90;;;;;;4917823;29;20219;-85
2021/10/09 01:33:07;;;;;;;42.77;33.17;;;10.80;99.90;;;;;;4932978;29;20213;-87
2021/10/09 01:35:46;;;;;;;37.33;31.50;;;10.80;99.90;;;;;;4932964;29;20647;-87
2021/10/09 01:38:14;;;;;;;40.47;32.47;;;10.80;99.90;;;;;;4932934;29;20217;-87
2021/10/09 01:40:41;;;;;;;40.07;32.40;;;10.70;99.90;;;;;;4934458;29;20217;-86
2021/10/09 01:43:10;;;;;;;41.50;32.80;;;10.70;99.90;;;;;;4928324;29;20221;-86
2021/10/09 01:45:38;;;;;;;39.97;32.73;;;10.70;99.90;;;;;;4916104;29;20203;-88
2021/10/09 01:48:05;;;;;;;41.20;33.43;;;10.70;99.90;;;;;;4916501;29;20211;-88
2021/10/09 01:50:32;;;;;;;41.13;31.93;;;10.70;99.90;;;;;;4916429;29;20234;-84
2021/10/09 01:52:59;;;;;;;41.57;33.20;;;10.70;99.90;;;;;;4914334;29;20207;-87
2021/10/09 01:55:27;;;;;;;32.27;28.77;;;10.60;99.90;;;;;;4915829;29;20234;-87
2021/10/09 01:57:54;;;;;;;30.30;25.03;;;10.60;99.90;;;;;;4916691;29;20218;-87
2021/10/09 02:00:22;;;;;;;31.10;25.93;;;10.50;99.90;;;;;;4922513;29;20210;-87
2021/10/09 02:02:49;;;;;;;29.00;26.00;;;10.40;99.90;;;;;;4935429;29;20206;-85
2021/10/09 02:05:16;;;;;;;30.60;26.47;;;10.30;99.90;;;;;;4930289;29;20210;-88
2021/10/09 02:07:43;;;;;;;27.67;23.80;;;10.30;99.90;;;;;;4915468;29;20203;-87
2021/10/09 02:10:13;;;;;;;23.37;20.80;;;10.30;99.90;;;;;;4915910;29;20213;-88
2021/10/09 02:12:41;;;;;;;29.47;24.73;;;10.20;99.90;;;;;;4916038;29;20206;-88
2021/10/09 02:15:12;;;;;;;23.80;21.03;;;10.10;99.90;;;;;;4928963;29;20600;-87
2021/10/09 02:26:06;;;;;;;30.10;25.83;;;9.90;99.90;;;;;;4934836;29;20205;-88
2021/10/09 02:28:34;;;;;;;33.80;27.33;;;9.90;99.90;;;;;;4934556;29;20229;-86
2021/10/09 02:31:01;;;;;;;36.10;28.40;;;9.80;99.90;;;;;;4934741;29;20206;-86
2021/10/09 02:33:28;;;;;;;35.73;28.37;;;9.80;99.90;;;;;;4933959;29;20220;-88
2021/10/09 02:35:55;;;;;;;30.93;25.93;;;9.80;99.90;;;;;;4933940;29;20226;-88
2021/10/09 02:38:22;;;;;;;41.97;31.20;;;9.80;99.90;;;;;;4919525;29;20217;-86
2021/10/09 02:40:48;;;;;;;43.57;32.23;;;9.80;99.90;;;;;;4915449;29;20480;-88
2021/10/09 02:43:16;;;;;;;40.30;30.40;;;9.90;99.90;;;;;;4915413;29;20217;-89
2021/10/09 02:45:44;;;;;;;42.27;32.80;;;9.90;99.90;;;;;;4914743;29;20285;-87
2021/10/09 02:48:15;;;;;;;42.17;30.50;;;10.00;99.90;;;;;;4932320;29;20214;-86
2021/10/09 02:50:42;;;;;;;43.70;32.80;;;10.10;99.90;;;;;;4933442;29;20209;-86
2021/10/09 02:53:09;;;;;;;43.80;31.13;;;10.10;99.90;;;;;;4934338;29;20225;-85
2021/10/09 02:55:36;;;;;;;37.17;28.40;;;10.10;99.90;;;;;;4933492;29;20245;-87
2021/10/09 02:58:03;;;;;;;37.63;27.07;;;10.10;99.90;;;;;;4933633;29;20218;-86
2021/10/09 03:00:30;;;;;;;35.70;26.40;;;10.10;99.90;;;;;;4932337;29;20202;-87
2021/10/09 03:02:59;;;;;;;44.17;32.80;;;10.00;99.90;;;;;;4932113;29;20552;-83
2021/10/09 03:05:26;;;;;;;39.53;29.07;;;10.00;99.90;;;;;;4931692;29;20297;-84
2021/10/09 03:07:53;;;;;;;36.73;28.33;;;10.00;99.90;;;;;;4932335;29;20217;-84
2021/10/09 03:10:20;;;;;;;47.40;34.70;;;9.90;99.90;;;;;;4929362;29;20210;-84
2021/10/09 03:12:47;;;;;;;41.87;30.37;;;9.90;99.90;;;;;;4931979;29;20218;-86
2021/10/09 03:15:14;;;;;;;36.20;27.50;;;9.90;99.90;;;;;;4933204;29;20238;-85
2021/10/09 03:17:41;;;;;;;39.63;28.73;;;9.90;99.90;;;;;;4933782;29;20217;-87
2021/10/09 03:20:11;;;;;;;36.83;28.33;;;9.90;99.90;;;;;;4933704;29;20259;-85
2021/10/09 03:22:38;;;;;;;33.00;24.90;;;9.80;99.90;;;;;;4933563;29;20243;-87
2021/10/09 03:25:06;;;;;;;31.60;25.00;;;9.90;99.90;;;;;;4933414;29;20213;-86
2021/10/09 03:27:33;;;;;;;38.63;28.43;;;9.80;99.90;;;;;;4933883;29;20258;-86
2021/10/09 03:29:59;;;;;;;39.93;29.40;;;9.80;99.90;;;;;;4933079;29;20209;-86
2021/10/09 03:32:26;;;;;;;39.47;28.60;;;9.80;99.90;;;;;;4932271;29;20214;-86
2021/10/09 03:34:54;;;;;;;35.90;26.37;;;9.70;99.90;;;;;;4932975;29;20589;-87
2021/10/09 03:37:23;;;;;;;34.40;26.10;;;9.70;99.90;;;;;;4932871;29;20305;-86
2021/10/09 03:39:51;;;;;;;37.37;27.27;;;9.70;99.90;;;;;;4933173;29;20496;-88
2021/10/09 03:42:21;;;;;;;32.43;24.97;;;9.60;99.90;;;;;;4931625;29;20246;-84
2021/10/09 03:44:52;;;;;;;33.43;24.93;;;9.60;99.90;;;;;;4932949;29;20216;-86
2021/10/09 03:47:22;;;;;;;33.97;25.77;;;9.50;99.90;;;;;;4931785;29;20527;-86
2021/10/09 03:49:53;;;;;;;35.43;27.97;;;9.50;99.90;;;;;;4933062;29;20205;-85
2021/10/09 03:52:34;;;;;;;29.17;23.07;;;9.50;99.90;;;;;;4932728;29;20212;-84
2021/10/09 03:55:05;;;;;;;29.27;23.17;;;9.40;99.90;;;;;;4929671;29;20236;-85
2021/10/09 03:57:32;;;;;;;29.53;23.13;;;9.40;99.90;;;;;;4912983;29;20660;-83
2021/10/09 03:59:58;;;;;;;36.03;26.77;;;9.40;99.90;;;;;;4896749;29;20210;-84
2021/10/09 04:02:25;;;;;;;32.70;25.57;;;9.40;99.90;;;;;;4924351;29;20519;-85
2021/10/09 04:04:52;;;;;;;35.97;26.90;;;9.30;99.90;;;;;;4932864;29;20449;-86
2021/10/09 04:07:19;;;;;;;32.40;25.03;;;9.30;99.90;;;;;;4931710;29;20599;-85
2021/10/09 04:09:46;;;;;;;31.07;24.57;;;9.30;99.90;;;;;;4931793;29;20202;-86
2021/10/09 04:12:14;;;;;;;31.17;24.27;;;9.30;99.90;;;;;;4932673;29;20201;-85
2021/10/09 04:14:41;;;;;;;36.27;26.63;;;9.30;99.90;;;;;;4932040;29;20229;-85
2021/10/09 04:17:08;;;;;;;29.73;23.57;;;9.30;99.90;;;;;;4932293;29;20203;-85
2021/10/09 04:19:35;;;;;;;29.77;24.00;;;9.30;99.90;;;;;;4931369;29;20820;-85
2021/10/09 04:22:02;;;;;;;29.77;23.17;;;9.30;99.90;;;;;;4932538;29;20209;-83
2021/10/09 04:24:29;;;;;;;36.97;27.30;;;9.20;99.90;;;;;;4915827;29;20627;-84
2021/10/09 04:26:57;;;;;;;34.93;25.70;;;9.20;99.90;;;;;;4912366;29;20214;-86
2021/10/09 04:29:26;;;;;;;43.63;30.40;;;9.20;99.90;;;;;;4911325;29;20649;-85
2021/10/09 04:31:53;;;;;;;42.87;30.77;;;9.20;99.90;;;;;;4913115;29;20274;-86
2021/10/09 04:34:20;;;;;;;40.00;29.83;;;9.20;99.90;;;;;;4913105;29;20199;-86
2021/10/09 04:36:47;;;;;;;38.77;28.93;;;9.20;99.90;;;;;;4913691;29;20210;-86
2021/10/09 04:39:14;;;;;;;41.80;29.33;;;9.20;99.90;;;;;;4928330;29;20248;-84
2021/10/09 04:41:41;;;;;;;39.63;29.30;;;9.20;99.90;;;;;;4932875;29;20206;-86
2021/10/09 04:44:08;;;;;;;41.07;29.03;;;9.20;99.90;;;;;;4932843;29;20214;-86
2021/10/09 04:46:36;;;;;;;47.33;35.07;;;9.20;99.90;;;;;;4932383;29;20756;-86
2021/10/09 04:49:03;;;;;;;44.83;32.67;;;9.30;99.90;;;;;;4921427;29;20234;-87
2021/10/09 04:51:30;;;;;;;42.47;30.37;;;9.30;99.90;;;;;;4913392;29;20207;-85
2021/10/09 04:53:57;;;;;;;42.30;30.40;;;9.30;99.90;;;;;;4925061;29;20210;-87
2021/10/09 04:56:23;;;;;;;48.20;33.57;;;9.20;99.90;;;;;;4935270;29;20237;-86
2021/10/09 04:58:50;;;;;;;45.67;31.93;;;9.20;99.90;;;;;;4936156;29;20209;-85
2021/10/09 05:01:17;;;;;;;54.30;36.07;;;9.20;99.90;;;;;;4935538;29;20229;-85
2021/10/09 05:03:45;;;;;;;47.70;34.13;;;9.20;99.90;;;;;;4935262;29;20531;-86
2021/10/09 05:06:12;;;;;;;44.80;32.10;;;9.20;99.90;;;;;;4935498;29;20206;-86
2021/10/09 05:08:39;;;;;;;49.73;33.33;;;9.20;99.90;;;;;;4935244;29;20217;-87
2021/10/09 05:11:06;;;;;;;48.53;34.90;;;9.20;99.90;;;;;;4934719;29;20213;-87
2021/10/09 05:13:33;;;;;;;54.83;37.30;;;9.20;99.90;;;;;;4934101;29;20214;-86
2021/10/09 05:16:00;;;;;;;53.17;36.50;;;9.20;99.90;;;;;;4933244;29;20230;-87
2021/10/09 05:18:26;;;;;;;50.70;35.53;;;9.20;99.90;;;;;;4915737;29;20206;-85
2021/10/09 05:20:55;;;;;;;51.27;33.90;;;9.30;99.90;;;;;;4916816;29;20207;-87
2021/10/09 05:23:21;;;;;;;49.53;33.43;;;9.30;99.90;;;;;;4916328;29;20211;-87
2021/10/09 05:25:49;;;;;;;54.53;36.90;;;9.20;99.90;;;;;;4915882;29;20210;-87
2021/10/09 05:28:18;;;;;;;60.80;39.77;;;9.30;99.90;;;;;;4916039;29;20226;-87
2021/10/09 05:30:47;;;;;;;55.93;36.93;;;9.30;99.90;;;;;;4913671;29;20211;-86
2021/10/09 05:33:20;;;;;;;52.97;35.77;;;9.30;99.90;;;;;;4914392;29;20210;-89
2021/10/09 05:35:46;;;;;;;48.53;33.43;;;9.30;99.90;;;;;;4917623;29;20619;-86
2021/10/09 05:38:15;;;;;;;49.83;34.50;;;9.30;99.90;;;;;;4934748;29;20288;-86
2021/10/09 05:40:42;;;;;;;56.47;36.33;;;9.20;99.90;;;;;;4934988;29;20566;-84
2021/10/09 05:43:09;;;;;;;56.63;37.53;;;9.20;99.90;;;;;;4935681;29;20213;-85
2021/10/09 05:45:36;;;;;;;49.83;34.00;;;9.20;99.90;;;;;;4934465;29;20194;-86
2021/10/09 05:48:03;;;;;;;46.97;32.67;;;9.20;99.90;;;;;;4935159;29;20210;-86
2021/10/09 05:50:34;;;;;;;53.60;34.40;;;9.20;99.90;;;;;;4934760;29;20429;-87
2021/10/09 05:53:10;;;;;;;49.20;33.90;;;9.10;99.90;;;;;;4934190;29;20233;-87
2021/10/09 05:55:46;;;;;;;43.83;31.07;;;9.10;99.90;;;;;;4930186;29;20252;-85
2021/10/09 05:58:16;;;;;;;48.73;33.10;;;9.10;99.90;;;;;;4933637;29;20221;-83
2021/10/09 06:01:20;;;;;;;51.17;33.97;;;9.10;99.90;;;;;;4932862;29;20624;-86
2021/10/09 06:26:16;;;;;;;61.83;40.33;;;9.20;99.90;;;;;;4915694;29;20271;-87
2021/10/09 06:42:44;;;;;;;62.60;41.53;;;9.40;99.90;;;;;;4932686;29;20209;-87
2021/10/09 06:45:40;;;;;;;66.67;42.07;;;9.50;99.90;;;;;;4931439;29;20486;-86
2021/10/09 06:48:14;;;;;;;67.53;39.73;;;9.60;99.90;;;;;;4934143;29;20916;-87
2021/10/09 06:51:08;;;;;;;62.33;39.87;;;9.60;99.90;;;;;;4914702;29;20367;-86
2021/10/09 07:01:49;;;;;;;77.60;45.67;;;9.80;99.90;;;;;;4914925;29;20214;-87
2021/10/09 07:04:17;;;;;;;76.37;45.77;;;9.80;99.90;;;;;;4901214;29;20483;-86
2021/10/09 07:06:44;;;;;;;69.63;44.57;;;9.90;99.90;;;;;;4915292;29;20211;-87
2021/10/09 07:09:11;;;;;;;70.13;44.87;;;10.00;99.90;;;;;;4914780;29;20654;-87
2021/10/09 07:11:38;;;;;;;72.27;45.47;;;10.00;99.90;;;;;;4914471;29;20199;-84
2021/10/09 07:14:06;;;;;;;69.50;43.17;;;10.10;99.90;;;;;;4932753;29;20897;-86
2021/10/09 07:16:33;;;;;;;72.07;45.30;;;10.10;99.90;;;;;;4932043;29;20237;-86
2021/10/09 07:19:02;;;;;;;77.60;47.80;;;10.10;99.90;;;;;;4932670;29;20236;-84
2021/10/09 07:21:29;;;;;;;75.70;47.73;;;10.20;99.90;;;;;;4929090;29;20563;-87
2021/10/09 07:23:56;;;;;;;75.87;47.60;;;10.20;99.90;;;;;;4932493;29;20201;-87
2021/10/09 07:26:23;;;;;;;73.33;47.87;;;10.30;99.90;;;;;;4930704;29;20222;-85
2021/10/09 07:28:50;;;;;;;81.07;48.60;;;10.30;99.90;;;;;;4898196;29;20655;-87
2021/10/09 07:31:17;;;;;;;82.83;50.83;;;10.30;99.90;;;;;;4927227;29;20237;-92
2021/10/09 07:33:44;;;;;;;80.20;49.87;;;10.40;99.90;;;;;;4934427;29;20489;-89
2021/10/09 07:36:12;;;;;;;77.10;49.20;;;10.40;99.90;;;;;;4934489;29;20239;-90
2021/10/09 07:38:39;;;;;;;76.93;46.90;;;10.50;99.90;;;;;;4934856;29;20210;-90
2021/10/09 07:41:06;;;;;;;82.43;48.70;;;10.60;99.90;;;;;;4938216;29;20230;-89
2021/10/09 07:43:33;;;;;;;73.70;46.60;;;10.60;99.90;;;;;;4936877;29;20206;-90
2021/10/09 07:46:00;;;;;;;74.20;46.97;;;10.60;99.90;;;;;;4933516;29;20501;-91
2021/10/09 07:48:27;;;;;;;75.17;47.60;;;10.60;99.90;;;;;;4933285;29;20217;-91
2021/10/09 07:50:55;;;;;;;76.63;47.50;;;10.70;99.90;;;;;;4933157;29;20300;-90
2021/10/09 07:53:24;;;;;;;70.83;45.03;;;10.70;99.90;;;;;;4932441;29;20210;-90
2021/10/09 07:55:50;;;;;;;70.37;45.07;;;10.70;99.90;;;;;;4912676;29;20238;-90
2021/10/09 07:58:17;;;;;;;72.00;47.13;;;10.80;99.90;;;;;;4913240;29;20242;-89
2021/10/09 08:00:44;;;;;;;70.60;45.20;;;10.80;99.90;;;;;;4932891;29;20205;-89
2021/10/09 08:03:11;;;;;;;80.30;49.27;;;10.90;99.90;;;;;;4933197;29;20201;-88
2021/10/09 08:05:38;;;;;;;74.53;47.47;;;10.90;99.90;;;;;;4932822;29;20510;-90
2021/10/09 08:08:05;;;;;;;69.63;44.53;;;10.90;99.90;;;;;;4933942;29;20202;-92
2021/10/09 08:10:34;;;;;;;74.53;49.23;;;11.00;99.90;;;;;;4920541;29;20214;-90
2021/10/09 08:13:00;;;;;;;83.60;51.03;;;11.10;99.90;;;;;;4914236;29;20230;-88
2021/10/09 08:15:27;;;;;;;76.53;48.63;;;11.20;99.90;;;;;;4918025;29;20216;-90
2021/10/09 08:17:54;;;;;;;76.93;48.40;;;11.20;99.90;;;;;;4933501;29;20213;-92
2021/10/09 08:20:23;;;;;;;75.27;48.03;;;11.20;99.90;;;;;;4932362;29;20206;-90
2021/10/09 08:22:58;;;;;;;85.87;51.87;;;11.30;99.90;;;;;;4932660;29;20585;-92
2021/10/09 08:25:52;;;;;;;79.73;49.87;;;11.30;99.90;;;;;;4933225;29;20579;-93
2021/10/09 08:36:54;;;;;;;84.00;50.93;;;11.40;99.90;;;;;;4859742;29;20660;-90
2021/10/09 08:39:20;;;;;;;87.93;50.23;;;11.50;99.90;;;;;;4894887;29;20847;-90
2021/10/09 08:41:47;;;;;;;89.07;50.00;;;11.50;99.90;;;;;;4917818;29;20210;-93
2021/10/09 08:44:16;;;;;;;77.17;48.70;;;11.60;99.90;;;;;;4918516;29;20202;-90
2021/10/09 08:46:43;;;;;;;79.03;48.93;;;11.60;99.90;;;;;;4917308;29;20206;-91
2021/10/09 08:49:10;;;;;;;77.50;49.40;;;11.70;99.90;;;;;;4918161;29;20209;-90
2021/10/09 08:51:38;;;;;;;71.83;48.60;;;11.70;99.90;;;;;;4937476;29;20221;-91
2021/10/09 08:54:06;;;;;;;82.37;48.90;;;11.80;99.90;;;;;;4936445;29;20201;-87
2021/10/09 08:56:35;;;;;;;67.33;44.27;;;11.90;99.90;;;;;;4933782;29;20256;-81
2021/10/09 08:59:09;;;;;;;72.17;48.47;;;11.90;99.90;;;;;;4931552;29;20301;-82
2021/10/09 09:01:45;;;;;;;73.10;47.37;;;12.00;99.90;;;;;;4932601;29;20240;-84
2021/10/09 09:04:24;;;;;;;71.50;47.90;;;12.00;99.90;;;;;;4932314;29;20215;-85
2021/10/09 09:40:43;;;;;;;51.47;39.83;;;12.80;99.90;;;;;;4934254;29;20193;-88
2021/10/09 09:43:11;;;;;;;51.97;41.00;;;12.80;99.90;;;;;;4928055;29;20229;-91
2021/10/09 09:45:39;;;;;;;48.37;37.53;;;12.80;99.90;;;;;;4933840;29;20209;-91
2021/10/09 09:48:07;;;;;;;47.77;38.93;;;12.90;99.90;;;;;;4926021;29;20230;-91
2021/10/09 09:50:36;;;;;;;52.90;37.97;;;13.00;99.90;;;;;;4916002;29;20215;-92
2021/10/09 09:53:05;;;;;;;50.50;39.60;;;13.10;99.90;;;;;;4915252;29;20207;-87
2021/10/09 09:55:32;;;;;;;45.63;36.67;;;13.30;99.90;;;;;;4916193;29;20519;-88
2021/10/09 09:58:01;;;;;;;48.97;38.13;;;13.40;99.90;;;;;;4915969;29;20203;-89
2021/10/09 10:00:33;;;;;;;48.90;38.43;;;13.60;99.90;;;;;;4915516;29;20214;-90
2021/10/09 10:03:03;;;;;;;45.80;35.80;;;13.60;99.90;;;;;;4915847;29;20207;-88
2021/10/09 10:05:30;;;;;;;42.97;34.83;;;13.60;99.90;;;;;;4914855;29;20249;-91
2021/10/09 10:07:58;;;;;;;46.27;35.63;;;13.80;99.90;;;;;;4915374;29;20214;-89
2021/10/09 10:10:25;;;;;;;45.37;34.73;;;14.00;99.90;;;;;;4930485;29;20232;-90
2021/10/09 10:12:55;;;;;;;43.03;35.23;;;14.00;99.90;;;;;;4932229;29;20205;-85
2021/10/09 10:15:28;;;;;;;42.17;35.47;;;14.00;99.90;;;;;;4930779;29;20210;-83
2021/10/09 10:17:55;;;;;;;44.23;34.20;;;13.90;99.90;;;;;;4924589;29;20788;-82
2021/10/09 10:20:22;;;;;;;40.00;33.23;;;13.90;99.90;;;;;;4930780;29;20221;-81
2021/10/09 10:22:58;;;;;;;43.33;34.57;;;14.00;99.90;;;;;;4923825;29;20238;-86
2021/10/09 10:25:37;;;;;;;42.67;32.97;;;13.90;99.90;;;;;;4913805;29;20229;-89
2021/10/09 10:28:07;;;;;;;39.73;31.57;;;13.90;99.90;;;;;;4928917;29;20234;-83
2021/10/09 10:30:35;;;;;;;35.50;31.13;;;14.10;99.90;;;;;;4933450;29;20224;-92
2021/10/09 10:36:40;;;;;;;45.13;32.33;;;14.30;99.90;;;;;;4913969;29;20281;-85
2021/10/09 10:39:09;;;;;;;36.23;30.10;;;14.30;99.90;;;;;;4933192;29;20297;-86
2021/10/09 10:41:50;;;;;;;41.17;31.00;;;14.40;99.90;;;;;;4920431;29;20313;-86
2021/10/09 10:44:54;;;;;;;38.43;31.20;;;14.50;99.90;;;;;;4908251;29;20234;-91
2021/10/09 10:47:43;;;;;;;36.87;29.70;;;14.60;99.90;;;;;;4912394;29;20266;-85
2021/10/09 10:50:46;;;;;;;38.93;32.47;;;14.80;99.90;;;;;;4912739;29;20322;-82
2021/10/09 10:53:18;;;;;;;36.00;30.77;;;14.80;99.90;;;;;;4922992;29;20276;-82
2021/10/09 10:56:06;;;;;;;35.43;31.03;;;14.90;99.90;;;;;;4927360;29;20246;-78
2021/10/09 10:58:33;;;;;;;35.20;29.77;;;14.90;99.90;;;;;;4929247;29;20237;-86
2021/10/09 11:01:17;;;;;;;36.20;30.77;;;14.90;99.90;;;;;;4932072;29;20209;-83
2021/10/09 11:03:48;;;;;;;36.73;30.67;;;15.00;99.90;;;;;;4930811;29;20218;-85
2021/10/09 11:06:16;;;;;;;38.50;30.37;;;15.00;99.90;;;;;;4932461;29;20205;-85
2021/10/09 11:08:43;;;;;;;36.73;30.53;;;15.10;99.90;;;;;;4932516;29;20213;-83
2021/10/09 11:11:12;;;;;;;33.83;29.63;;;15.20;99.90;;;;;;4931625;29;20233;-88
2021/10/09 11:13:40;;;;;;;34.73;29.33;;;15.30;99.90;;;;;;4929334;29;20213;-81
2021/10/09 11:16:07;;;;;;;35.53;28.90;;;15.40;99.90;;;;;;4929144;29;20289;-87
2021/10/09 11:18:48;;;;;;;36.43;28.80;;;15.50;99.90;;;;;;4930036;29;20206;-85
2021/10/09 11:21:16;;;;;;;35.17;29.27;;;15.70;99.90;;;;;;4932011;29;20605;-83
2021/10/09 11:23:52;;;;;;;39.17;28.90;;;15.60;99.90;;;;;;4910723;29;20302;-85
2021/10/09 11:26:20;;;;;;;34.47;28.23;;;15.70;99.90;;;;;;4931123;29;20300;-86
2021/10/09 11:28:47;;;;;;;37.13;28.80;;;15.60;99.90;;;;;;4930298;29;20230;-83
2021/10/09 11:31:24;;;;;;;32.77;28.07;;;15.40;99.90;;;;;;4931437;29;20209;-83
2021/10/09 11:33:56;;;;;;;28.97;25.53;;;15.50;99.90;;;;;;4931315;29;20502;-84
2021/10/09 11:36:23;;;;;;;33.07;28.20;;;15.60;99.90;;;;;;4922404;29;20249;-81
2021/10/09 11:39:02;;;;;;;32.47;27.73;;;15.60;99.90;;;;;;4929649;29;20642;-83
2021/10/09 11:41:31;;;;;;;33.37;27.20;;;15.70;99.90;;;;;;4907464;29;20927;-82
2021/10/09 11:44:02;;;;;;;30.90;26.85;;;15.70;99.90;;;;;;4910346;29;20213;-83
2021/10/09 11:46:45;;;;;;;28.38;24.95;;;15.70;99.90;;;;;;4911125;29;20289;-84
2021/10/09 11:54:52;;;;;;;31.30;27.07;;;16.00;99.90;;;;;;4930105;29;20198;-84
2021/10/09 11:57:20;;;;;;;29.60;25.27;;;16.00;99.90;;;;;;4928161;29;20697;-81
2021/10/09 11:59:47;;;;;;;33.60;25.73;;;16.10;99.90;;;;;;4927652;29;20209;-82
2021/10/09 12:02:34;;;;;;;36.22;27.98;;;16.00;99.90;;;;;;4929543;29;20202;-82
2021/10/09 12:05:01;;;;;;;32.90;26.43;;;16.00;99.90;;;;;;4933016;29;20205;-80
2021/10/09 12:07:27;;;;;;;31.92;25.80;;;16.00;99.90;;;;;;4933297;29;20213;-81
2021/10/09 12:09:59;;;;;;;34.58;26.98;;;16.10;99.90;;;;;;4933983;29;20198;-85
2021/10/09 12:12:31;;;;;;;33.83;27.17;;;15.90;99.90;;;;;;4932697;29;20292;-84
2021/10/09 12:14:59;;;;;;;29.90;25.92;;;15.90;99.90;;;;;;4933899;29;20210;-87
2021/10/09 12:17:36;;;;;;;30.77;26.00;;;15.90;99.90;;;;;;4916520;29;20261;-80
2021/10/09 12:20:05;;;;;;;34.28;28.05;;;16.00;99.90;;;;;;4914653;29;20210;-81
2021/10/09 12:22:42;;;;;;;30.70;26.13;;;15.90;99.90;;;;;;4932284;29;20210;-82
2021/10/09 12:25:22;;;;;;;32.33;25.98;;;15.80;99.90;;;;;;4931274;29;20197;-81
2021/10/09 12:27:56;;;;;;;31.35;25.88;;;15.90;99.90;;;;;;4932187;29;20318;-85
2021/10/09 12:30:34;;;;;;;29.08;23.50;;;15.90;99.90;;;;;;4933438;29;20524;-84
2021/10/09 12:33:01;;;;;;;33.55;27.02;;;16.00;99.90;;;;;;4930031;29;20202;-82
2021/10/09 12:35:29;;;;;;;27.50;24.30;;;16.00;99.90;;;;;;4925954;29;20551;-80
2021/10/09 12:37:58;;;;;;;29.63;23.92;;;16.10;99.90;;;;;;4930484;29;20259;-83
2021/10/09 12:40:26;;;;;;;29.60;26.30;;;16.10;99.90;;;;;;4914074;29;20214;-84
2021/10/09 12:42:57;;;;;;;28.60;24.80;;;16.20;99.90;;;;;;4916791;29;20199;-87
2021/10/09 12:45:25;;;;;;;32.65;24.88;;;16.10;99.90;;;;;;4919627;29;20214;-82
2021/10/09 12:47:52;;;;;;;28.25;25.20;;;16.10;99.90;;;;;;4932813;29;20595;-81
2021/10/09 12:50:19;;;;;;;31.75;25.73;;;16.10;99.90;;;;;;4933405;29;20198;-84
2021/10/09 12:52:47;;;;;;;30.47;25.17;;;16.10;99.90;;;;;;4933570;29;20206;-83
2021/10/09 12:55:14;;;;;;;32.80;26.20;;;16.10;99.90;;;;;;4916931;29;20269;-83
2021/10/09 12:57:49;;;;;;;30.48;25.00;;;16.10;99.90;;;;;;4914430;29;20576;-82
2021/10/09 13:00:18;;;;;;;35.70;25.10;;;16.20;99.90;;;;;;4912863;29;20230;-83
2021/10/09 13:02:45;;;;;;;29.83;25.07;;;16.20;99.90;;;;;;4923677;29;20670;-80
2021/10/09 13:05:12;;;;;;;30.05;24.30;;;16.10;99.90;;;;;;4925977;29;20269;-83
2021/10/09 13:07:39;;;;;;;30.40;26.38;;;16.20;99.90;;;;;;4912796;29;20636;-83
2021/10/09 13:10:07;;;;;;;28.63;24.53;;;16.20;99.90;;;;;;4913128;29;20206;-82
2021/10/09 13:12:34;;;;;;;31.90;25.57;;;16.10;99.90;;;;;;4912056;29;20214;-82
2021/10/09 13:15:01;;;;;;;29.88;25.48;;;16.00;99.90;;;;;;4912350;29;20419;-83
2021/10/09 13:17:29;;;;;;;29.13;24.70;;;16.00;99.90;;;;;;4912639;29;20654;-84
2021/10/09 13:19:56;;;;;;;33.70;26.60;;;16.00;99.90;;;;;;4913119;29;20205;-84
2021/10/09 13:22:23;;;;;;;32.03;26.40;;;15.90;99.90;;;;;;4930822;29;20214;-82
2021/10/09 13:24:50;;;;;;;33.38;26.10;;;15.80;99.90;;;;;;4932325;29;20219;-83
2021/10/09 13:27:17;;;;;;;31.77;26.48;;;15.80;99.90;;;;;;4932191;29;20217;-83
2021/10/09 13:29:44;;;;;;;33.93;26.13;;;15.70;99.90;;;;;;4918046;29;20210;-80
2021/10/09 13:32:10;;;;;;;34.50;26.83;;;15.70;99.90;;;;;;4913159;29;20222;-81
2021/10/09 13:34:39;;;;;;;32.00;25.88;;;15.60;99.90;;;;;;4924834;29;20212;-82
2021/10/09 13:37:05;;;;;;;34.80;27.55;;;15.60;99.90;;;;;;4932335;29;20222;-81
2021/10/09 13:39:32;;;;;;;31.10;26.10;;;15.60;99.90;;;;;;4931129;29;20226;-83
2021/10/09 13:41:59;;;;;;;33.47;26.77;;;15.50;99.90;;;;;;4931045;29;20281;-84
2021/10/09 13:44:26;;;;;;;31.10;25.83;;;15.50;99.90;;;;;;4929975;29;20338;-86
2021/10/09 13:46:53;;;;;;;33.43;26.60;;;15.50;99.90;;;;;;4922892;29;20709;-84
2021/10/09 13:49:20;;;;;;;34.40;27.47;;;15.50;99.90;;;;;;4929836;29;20228;-81
2021/10/09 13:51:48;;;;;;;33.00;28.00;;;15.50;99.90;;;;;;4929093;29;20273;-81
2021/10/09 13:54:15;;;;;;;34.47;28.63;;;15.40;99.90;;;;;;4916647;29;20210;-80
2021/10/09 13:56:41;;;;;;;32.13;27.37;;;15.40;99.90;;;;;;4910337;29;20445;-86
2021/10/09 13:59:08;;;;;;;40.60;29.17;;;15.40;99.90;;;;;;4911806;29;20234;-82
2021/10/09 14:01:35;;;;;;;33.60;27.07;;;15.30;99.90;;;;;;4909521;29;20214;-81
2021/10/09 14:04:02;;;;;;;37.47;29.70;;;15.30;99.90;;;;;;4909230;29;20206;-80
2021/10/09 14:06:29;;;;;;;33.30;27.90;;;15.30;99.90;;;;;;4907773;29;20207;-81
2021/10/09 14:08:57;;;;;;;35.67;28.42;;;15.20;99.90;;;;;;4918300;29;20205;-79
2021/10/09 14:11:24;;;;;;;33.60;27.23;;;15.20;99.90;;;;;;4926407;29;20202;-79
2021/10/09 14:13:51;;;;;;;32.03;27.13;;;15.20;99.90;;;;;;4927789;29;20500;-80
2021/10/09 14:16:17;;;;;;;32.93;27.73;;;15.20;99.90;;;;;;4927642;29;20212;-80
2021/10/09 14:18:44;;;;;;;31.13;27.07;;;15.10;99.90;;;;;;4915913;29;20543;-82
2021/10/09 14:21:11;;;;;;;32.23;26.67;;;15.10;99.90;;;;;;4927959;29;20217;-80
2021/10/09 14:23:39;;;;;;;35.63;28.10;;;15.00;99.90;;;;;;4927528;29;20213;-80
2021/10/09 14:26:07;;;;;;;32.87;27.87;;;15.00;99.90;;;;;;4907718;29;20879;-81